createdAt,value
2023-11-12T00:00:00.835Z,73
2023-11-12T00:30:21.536Z,74
2023-11-12T01:00:04.924Z,72
2023-11-12T01:30:06.133Z,73
2023-11-12T02:00:26.844Z,72
2023-11-12T02:30:11.376Z,70
2023-11-12T03:00:02.304Z,71
2023-11-12T03:30:15.186Z,70
2023-11-12T04:00:26.606Z,70
2023-11-12T05:00:20.154Z,74
2023-11-12T05:30:12.287Z,73
2023-11-12T06:00:04.993Z,72
2023-11-12T06:30:25.518Z,72
2023-11-12T07:00:08.755Z,75
2023-11-12T07:30:10.206Z,73
2023-11-12T08:00:01.191Z,76
2023-11-12T08:30:15.700Z,73
2023-11-12T09:00:06.417Z,74
2023-11-12T09:30:23.968Z,74
2023-11-12T10:00:27.218Z,78
2023-11-12T10:30:18.960Z,78
2023-11-12T11:00:21.482Z,75
2023-11-12T11:30:02.303Z,76
2023-11-12T12:00:25.646Z,77
2023-11-12T12:30:27.519Z,76
2023-11-12T13:00:08.725Z,75
2023-11-12T13:30:22.290Z,74
2023-11-12T14:00:09.453Z,73
2023-11-12T14:30:13.449Z,73
2023-11-12T15:00:24.166Z,76
2023-11-12T15:30:14.960Z,75
2023-11-12T16:00:19.169Z,73
2023-11-12T16:30:21.844Z,73
2023-11-12T17:00:26.668Z,72
2023-11-12T17:30:18.648Z,74
2023-11-12T18:00:20.012Z,74
2023-11-12T19:00:28.761Z,77
2023-11-12T19:30:14.292Z,82
2023-11-12T20:00:23.766Z,82
2023-11-12T20:30:26.670Z,82
2023-11-12T21:00:17.929Z,82
2023-11-12T21:30:21.013Z,83
2023-11-12T22:00:03.163Z,83
2023-11-12T22:30:05.678Z,83
2023-11-12T23:30:25.053Z,85
